Valverde — ICHJ — position and weather

sailwx.info

Track history (hours):
 
Tides and Currents Weather Stations Pressure Air Temp Water Temp Dewpoint Dewpoint Depression Visibility Wind Speed Wind Dir Waves Ship Positions

Valverde

Last reported at 2017-Nov-18 22:35 UTC. Time now 2017-Nov-19 05:03 UTC.
Position N 38°33' W 074°38'.

Length 185 m; draft 8 m.

Type: Ship (hazmat cat A). MMSI: 247227900.

Date/timePositionNaut miles runAvg speedWind from/ knotsBaromVisibWave heightAir tempDewpointWater temp
2017-Nov-18 22:35N 38°33' W 074°38'0 0.0
2017-Nov-18 15:05N 38°33' W 074°38'0 0.1
2017-Nov-18 14:35N 38°33' W 074°38'0 0.2
2017-Nov-18 14:23N 38°33' W 074°38'0 0.1
2017-Nov-18 13:56N 38°33' W 074°38'0 0.1
2017-Nov-18 13:23N 38°33' W 074°38'0 0.0
2017-Nov-18 12:35N 38°33' W 074°38'0 0.1
2017-Nov-18 12:26N 38°33' W 074°38'0 0.0
2017-Nov-18 11:59N 38°33' W 074°38'0 0.0
2017-Nov-18 10:53N 38°33' W 074°38'0 0.0
2017-Nov-18 10:26N 38°33' W 074°38'0 0.0
2017-Nov-18 09:59N 38°33' W 074°38'0 0.0
2017-Nov-18 08:11N 38°33' W 074°38'0 0.0
2017-Nov-18 07:56N 38°33' W 074°38'0 0.0
2017-Nov-18 05:41N 38°32' W 074°38'11511.1
2017-Nov-17 19:18N 40°18' W 073°40'413.4
2017-Nov-17 19:00N 40°21' W 073°43'612.2
2017-Nov-17 18:30N 40°27' W 073°43'4 7.0
2017-Nov-17 17:56N 40°31' W 073°41'0 0.2
2017-Nov-17 17:26N 40°31' W 073°41'0 0.0
2017-Nov-17 16:50N 40°31' W 073°41'0 0.1
2017-Nov-17 16:20N 40°31' W 073°41'0 0.0
2017-Nov-17 15:59N 40°31' W 073°41'0 0.0
2017-Nov-17 14:47N 40°31' W 073°41'0 0.1
2017-Nov-17 14:26N 40°31' W 073°41'0 0.0
2017-Nov-17 13:59N 40°31' W 073°41'0 0.0
2017-Nov-17 13:11N 40°31' W 073°41'0 0.0
2017-Nov-17 12:56N 40°31' W 073°41'0 0.1
2017-Nov-17 12:26N 40°31' W 073°41'0 0.1
2017-Nov-17 11:50N 40°31' W 073°41'0 0.2
2017-Nov-17 11:29N 40°31' W 073°41'0 0.0
2017-Nov-17 10:53N 40°31' W 073°41'0 0.1
2017-Nov-17 10:29N 40°31' W 073°41'0 0.1
2017-Nov-17 09:53N 40°31' W 073°41'0 0.1
2017-Nov-17 08:56N 40°31' W 073°41'0 0.2
2017-Nov-17 08:29N 40°31' W 073°41'0 0.1
2017-Nov-17 07:53N 40°31' W 073°41'0 0.1
2017-Nov-17 07:29N 40°31' W 073°41'0 0.0
2017-Nov-17 06:56N 40°31' W 073°41'0 0.2
2017-Nov-17 06:29N 40°31' W 073°41'0 0.1
2017-Nov-17 05:59N 40°31' W 073°41'0 0.0
2017-Nov-17 05:23N 40°31' W 073°41'0 0.1
2017-Nov-17 04:59N 40°31' W 073°41'0 0.0
2017-Nov-17 04:17N 40°31' W 073°41'0 0.1
2017-Nov-17 03:56N 40°31' W 073°41'0 0.1
2017-Nov-17 03:23N 40°31' W 073°41'0 0.0
2017-Nov-17 02:56N 40°31' W 073°41'0 0.0
2017-Nov-17 02:26N 40°31' W 073°41'0 0.0
2017-Nov-17 01:53N 40°31' W 073°41'0 0.1
2017-Nov-17 01:26N 40°31' W 073°41'0 0.0
2017-Nov-17 00:38N 40°31' W 073°41'0 0.2
2017-Nov-17 00:14N 40°31' W 073°41'0 0.0
2017-Nov-16 23:56N 40°31' W 073°41'0 0.1
2017-Nov-16 23:14N 40°31' W 073°41'0 1.7
2017-Nov-16 22:59N 40°31' W 073°42'3 6.9
2017-Nov-16 22:31N 40°29' W 073°45'5 9.4
2017-Nov-16 22:00N 40°27' W 073°51'5 9.9
2017-Nov-16 21:31N 40°30' W 073°56'5 9.9
2017-Nov-16 21:00N 40°33' W 074°02'510.5
2017-Nov-16 20:30N 40°38' W 074°03'0 0.5
2017-Nov-16 20:00N 40°38' W 074°04'0 0.1
2017-Nov-16 19:30N 40°38' W 074°04'0 0.1
2017-Nov-16 19:00N 40°38' W 074°04'0 0.1
2017-Nov-16 18:30N 40°38' W 074°04'0 0.1
2017-Nov-16 18:00N 40°38' W 074°04'0 0.1
2017-Nov-16 17:30N 40°38' W 074°04'0 0.0
2017-Nov-16 17:00N 40°38' W 074°04'0 0.0
2017-Nov-16 16:30N 40°38' W 074°04'0 0.0
2017-Nov-16 16:00N 40°38' W 074°04'0 0.1
2017-Nov-16 15:30N 40°38' W 074°04'0 0.1
2017-Nov-16 15:00N 40°38' W 074°04'0 0.0
2017-Nov-16 14:30N 40°38' W 074°04'0 0.1
2017-Nov-16 14:00N 40°38' W 074°04'0 0.4
2017-Nov-16 13:30N 40°38' W 074°04'0 0.1
2017-Nov-16 13:00N 40°38' W 074°04'3 6.2
2017-Nov-16 12:30N 40°35' W 074°02'5 9.4
2017-Nov-16 12:00N 40°30' W 074°03'4 8.1
2017-Nov-16 11:30N 40°30' W 074°08'6 8.7
2017-Nov-16 10:50N 40°30' W 074°16'2 6.3
2017-Nov-16 10:30N 40°32' W 074°15'0 0.0
2017-Nov-14 22:53N 40°32' W 074°15'0 1.0
2017-Nov-14 22:30N 40°32' W 074°15'3 3.2
2017-Nov-14 21:42N 40°30' W 074°12'2 9.2
2017-Nov-14 21:25N 40°30' W 074°09'410.5
2017-Nov-14 21:00N 40°29' W 074°04'5 9.3
2017-Nov-14 20:30N 40°28' W 073°58'4 9.0
2017-Nov-14 20:00N 40°26' W 073°52'4 8.1
2017-Nov-14 19:29N 40°27' W 073°47'3 5.4
2017-Nov-14 19:00N 40°27' W 073°43'2 3.0
2017-Nov-14 18:29N 40°29' W 073°42'1 0.5
2017-Nov-14 16:21N 40°29' W 073°41'0 0.0
2017-Nov-14 15:51N 40°29' W 073°41'0 0.1
2017-Nov-14 15:27N 40°29' W 073°41'0 0.0
2017-Nov-14 14:57N 40°29' W 073°41'0 0.0
2017-Nov-14 12:36N 40°29' W 073°41'0 0.1
2017-Nov-14 12:18N 40°29' W 073°41'0 0.1
2017-Nov-14 11:45N 40°29' W 073°41'0 0.0
2017-Nov-14 11:24N 40°29' W 073°41'0 0.0
2017-Nov-14 10:57N 40°29' W 073°41'0 0.0
2017-Nov-14 10:30N 40°29' W 073°41'0 0.0
2017-Nov-14 09:57N 40°29' W 073°41'0 0.0
2017-Nov-14 09:27N 40°29' W 073°41'0 0.0
2017-Nov-14 08:39N 40°29' W 073°41'0 0.0
2017-Nov-14 08:27N 40°29' W 073°41'0 0.0
2017-Nov-14 07:54N 40°29' W 073°41'0 0.0
2017-Nov-14 07:30N 40°29' W 073°41'0 0.0
2017-Nov-14 06:39N 40°29' W 073°41'0 0.0
2017-Nov-14 05:36N 40°29' W 073°41'0 0.1
2017-Nov-14 05:21N 40°29' W 073°41'0 0.0
2017-Nov-14 05:00N 40°29' W 073°41'0 0.0
2017-Nov-14 04:30N 40°29' W 073°41'0 0.0
2017-Nov-14 03:51N 40°29' W 073°41'0 0.0
2017-Nov-14 03:21N 40°29' W 073°41'0 0.0
2017-Nov-14 03:00N 40°29' W 073°41'0 0.0
2017-Nov-14 02:24N 40°29' W 073°41'0 0.0
2017-Nov-14 02:00N 40°29' W 073°41'0 0.0
2017-Nov-14 01:27N 40°29' W 073°41'0 0.0
2017-Nov-14 00:57N 40°29' W 073°41'0 0.0
2017-Nov-14 00:30N 40°29' W 073°41'0 0.0
2017-Nov-13 23:48N 40°29' W 073°41'0 0.1
2017-Nov-13 23:27N 40°29' W 073°41'0 0.0
2017-Nov-13 22:54N 40°29' W 073°41'0 0.0
2017-Nov-13 22:30N 40°29' W 073°41'0 0.0
2017-Nov-13 21:45N 40°29' W 073°41'0 0.0
2017-Nov-13 00:54N 40°29' W 073°41'0 0.0
2017-Nov-13 00:21N 40°29' W 073°41'0 0.0
2017-Nov-12 23:57N 40°29' W 073°41'0 0.0
2017-Nov-12 23:30N 40°29' W 073°41'0 0.1
2017-Nov-12 22:45N 40°29' W 073°41'0 0.2
2017-Nov-12 22:21N 40°29' W 073°41'2 4.9
2017-Nov-12 22:00N 40°28' W 073°40'4712.2
2017-Nov-12 18:11N 39°54' W 072°57'1512.7
2017-Nov-12 16:59N 39°44' W 072°43'612.7
2017-Nov-12 16:30N 39°39' W 072°38'  
Track history (hours):
 
Tides and Currents Weather Stations Pressure Air Temp Water Temp Dewpoint Dewpoint Depression Visibility Wind Speed Wind Dir Waves Ship Positions

Valverde

Last reported at 2017-Nov-18 22:35 UTC. Time now 2017-Nov-19 05:03 UTC.
Position N 38°33' W 074°38'.

Length 185 m; draft 8 m.

Type: Ship (hazmat cat A). MMSI: 247227900.

Date/timePositionNaut miles runAvg speedWind from/ knotsBaromVisibWave heightAir tempDewpointWater temp
2017-Nov-18 22:35N 38°33' W 074°38'0 0.0
2017-Nov-18 15:05N 38°33' W 074°38'0 0.1
2017-Nov-18 14:35N 38°33' W 074°38'0 0.2
2017-Nov-18 14:23N 38°33' W 074°38'0 0.1
2017-Nov-18 13:56N 38°33' W 074°38'0 0.1
2017-Nov-18 13:23N 38°33' W 074°38'0 0.0
2017-Nov-18 12:35N 38°33' W 074°38'0 0.1
2017-Nov-18 12:26N 38°33' W 074°38'0 0.0
2017-Nov-18 11:59N 38°33' W 074°38'0 0.0
2017-Nov-18 10:53N 38°33' W 074°38'0 0.0
2017-Nov-18 10:26N 38°33' W 074°38'0 0.0
2017-Nov-18 09:59N 38°33' W 074°38'0 0.0
2017-Nov-18 08:11N 38°33' W 074°38'0 0.0
2017-Nov-18 07:56N 38°33' W 074°38'0 0.0
2017-Nov-18 05:41N 38°32' W 074°38'11511.1
2017-Nov-17 19:18N 40°18' W 073°40'413.4
2017-Nov-17 19:00N 40°21' W 073°43'612.2
2017-Nov-17 18:30N 40°27' W 073°43'4 7.0
2017-Nov-17 17:56N 40°31' W 073°41'0 0.2
2017-Nov-17 17:26N 40°31' W 073°41'0 0.0
2017-Nov-17 16:50N 40°31' W 073°41'0 0.1
2017-Nov-17 16:20N 40°31' W 073°41'0 0.0
2017-Nov-17 15:59N 40°31' W 073°41'0 0.0
2017-Nov-17 14:47N 40°31' W 073°41'0 0.1
2017-Nov-17 14:26N 40°31' W 073°41'0 0.0
2017-Nov-17 13:59N 40°31' W 073°41'0 0.0
2017-Nov-17 13:11N 40°31' W 073°41'0 0.0
2017-Nov-17 12:56N 40°31' W 073°41'0 0.1
2017-Nov-17 12:26N 40°31' W 073°41'0 0.1
2017-Nov-17 11:50N 40°31' W 073°41'0 0.2
2017-Nov-17 11:29N 40°31' W 073°41'0 0.0
2017-Nov-17 10:53N 40°31' W 073°41'0 0.1
2017-Nov-17 10:29N 40°31' W 073°41'0 0.1
2017-Nov-17 09:53N 40°31' W 073°41'0 0.1
2017-Nov-17 08:56N 40°31' W 073°41'0 0.2
2017-Nov-17 08:29N 40°31' W 073°41'0 0.1
2017-Nov-17 07:53N 40°31' W 073°41'0 0.1
2017-Nov-17 07:29N 40°31' W 073°41'0 0.0
2017-Nov-17 06:56N 40°31' W 073°41'0 0.2
2017-Nov-17 06:29N 40°31' W 073°41'0 0.1
2017-Nov-17 05:59N 40°31' W 073°41'0 0.0
2017-Nov-17 05:23N 40°31' W 073°41'0 0.1
2017-Nov-17 04:59N 40°31' W 073°41'0 0.0
2017-Nov-17 04:17N 40°31' W 073°41'0 0.1
2017-Nov-17 03:56N 40°31' W 073°41'0 0.1
2017-Nov-17 03:23N 40°31' W 073°41'0 0.0
2017-Nov-17 02:56N 40°31' W 073°41'0 0.0
2017-Nov-17 02:26N 40°31' W 073°41'0 0.0
2017-Nov-17 01:53N 40°31' W 073°41'0 0.1
2017-Nov-17 01:26N 40°31' W 073°41'0 0.0
2017-Nov-17 00:38N 40°31' W 073°41'0 0.2
2017-Nov-17 00:14N 40°31' W 073°41'0 0.0
2017-Nov-16 23:56N 40°31' W 073°41'0 0.1
2017-Nov-16 23:14N 40°31' W 073°41'0 1.7
2017-Nov-16 22:59N 40°31' W 073°42'3 6.9
2017-Nov-16 22:31N 40°29' W 073°45'5 9.4
2017-Nov-16 22:00N 40°27' W 073°51'5 9.9
2017-Nov-16 21:31N 40°30' W 073°56'5 9.9
2017-Nov-16 21:00N 40°33' W 074°02'510.5
2017-Nov-16 20:30N 40°38' W 074°03'0 0.5
2017-Nov-16 20:00N 40°38' W 074°04'0 0.1
2017-Nov-16 19:30N 40°38' W 074°04'0 0.1
2017-Nov-16 19:00N 40°38' W 074°04'0 0.1
2017-Nov-16 18:30N 40°38' W 074°04'0 0.1
2017-Nov-16 18:00N 40°38' W 074°04'0 0.1
2017-Nov-16 17:30N 40°38' W 074°04'0 0.0
2017-Nov-16 17:00N 40°38' W 074°04'0 0.0
2017-Nov-16 16:30N 40°38' W 074°04'0 0.0
2017-Nov-16 16:00N 40°38' W 074°04'0 0.1
2017-Nov-16 15:30N 40°38' W 074°04'0 0.1
2017-Nov-16 15:00N 40°38' W 074°04'0 0.0
2017-Nov-16 14:30N 40°38' W 074°04'0 0.1
2017-Nov-16 14:00N 40°38' W 074°04'0 0.4
2017-Nov-16 13:30N 40°38' W 074°04'0 0.1
2017-Nov-16 13:00N 40°38' W 074°04'3 6.2
2017-Nov-16 12:30N 40°35' W 074°02'5 9.4
2017-Nov-16 12:00N 40°30' W 074°03'4 8.1
2017-Nov-16 11:30N 40°30' W 074°08'6 8.7
2017-Nov-16 10:50N 40°30' W 074°16'2 6.3
2017-Nov-16 10:30N 40°32' W 074°15'0 0.0
2017-Nov-14 22:53N 40°32' W 074°15'0 1.0
2017-Nov-14 22:30N 40°32' W 074°15'3 3.2
2017-Nov-14 21:42N 40°30' W 074°12'2 9.2
2017-Nov-14 21:25N 40°30' W 074°09'410.5
2017-Nov-14 21:00N 40°29' W 074°04'5 9.3
2017-Nov-14 20:30N 40°28' W 073°58'4 9.0
2017-Nov-14 20:00N 40°26' W 073°52'4 8.1
2017-Nov-14 19:29N 40°27' W 073°47'3 5.4
2017-Nov-14 19:00N 40°27' W 073°43'2 3.0
2017-Nov-14 18:29N 40°29' W 073°42'1 0.5
2017-Nov-14 16:21N 40°29' W 073°41'0 0.0
2017-Nov-14 15:51N 40°29' W 073°41'0 0.1
2017-Nov-14 15:27N 40°29' W 073°41'0 0.0
2017-Nov-14 14:57N 40°29' W 073°41'0 0.0
2017-Nov-14 12:36N 40°29' W 073°41'0 0.1
2017-Nov-14 12:18N 40°29' W 073°41'0 0.1
2017-Nov-14 11:45N 40°29' W 073°41'0 0.0
2017-Nov-14 11:24N 40°29' W 073°41'0 0.0
2017-Nov-14 10:57N 40°29' W 073°41'0 0.0
2017-Nov-14 10:30N 40°29' W 073°41'0 0.0
2017-Nov-14 09:57N 40°29' W 073°41'0 0.0
2017-Nov-14 09:27N 40°29' W 073°41'0 0.0
2017-Nov-14 08:39N 40°29' W 073°41'0 0.0
2017-Nov-14 08:27N 40°29' W 073°41'0 0.0
2017-Nov-14 07:54N 40°29' W 073°41'0 0.0
2017-Nov-14 07:30N 40°29' W 073°41'0 0.0
2017-Nov-14 06:39N 40°29' W 073°41'0 0.0
2017-Nov-14 05:36N 40°29' W 073°41'0 0.1
2017-Nov-14 05:21N 40°29' W 073°41'0 0.0
2017-Nov-14 05:00N 40°29' W 073°41'0 0.0
2017-Nov-14 04:30N 40°29' W 073°41'0 0.0
2017-Nov-14 03:51N 40°29' W 073°41'0 0.0
2017-Nov-14 03:21N 40°29' W 073°41'0 0.0
2017-Nov-14 03:00N 40°29' W 073°41'0 0.0
2017-Nov-14 02:24N 40°29' W 073°41'0 0.0
2017-Nov-14 02:00N 40°29' W 073°41'0 0.0
2017-Nov-14 01:27N 40°29' W 073°41'0 0.0
2017-Nov-14 00:57N 40°29' W 073°41'0 0.0
2017-Nov-14 00:30N 40°29' W 073°41'0 0.0
2017-Nov-13 23:48N 40°29' W 073°41'0 0.1
2017-Nov-13 23:27N 40°29' W 073°41'0 0.0
2017-Nov-13 22:54N 40°29' W 073°41'0 0.0
2017-Nov-13 22:30N 40°29' W 073°41'0 0.0
2017-Nov-13 21:45N 40°29' W 073°41'0 0.0
2017-Nov-13 00:54N 40°29' W 073°41'0 0.0
2017-Nov-13 00:21N 40°29' W 073°41'0 0.0
2017-Nov-12 23:57N 40°29' W 073°41'0 0.0
2017-Nov-12 23:30N 40°29' W 073°41'0 0.1
2017-Nov-12 22:45N 40°29' W 073°41'0 0.2
2017-Nov-12 22:21N 40°29' W 073°41'2 4.9
2017-Nov-12 22:00N 40°28' W 073°40'4712.2
2017-Nov-12 18:11N 39°54' W 072°57'1512.7
2017-Nov-12 16:59N 39°44' W 072°43'612.7
2017-Nov-12 16:30N 39°39' W 072°38'  

Dump ship's entire track history